首页
METAR-TAF:

METAR-TAF

机场 :

Hafar Al-Batin, 沙特阿拉伯

纬度: 27-54N, 经度: 045-32E, 海拔: 413米

METAR: 丢失

时间: 11:04 (08:04 UTC)

预报

该预报发布于3小时和4分钟前的05:00 UTC
预报有效从10日的 06点(UTC)到 10日的 20点(UTC)
风速12节,风向
能見度: 7000
多云层高于3500英尺
多云层高于10000英尺
短暂存在
从 10日的 06点(UTC)到 10日的 20点(UTC)
风速22节,风向多变
能見度: 4000
少量云层高于3500英尺, 积雨云.
高吹尘, 雷暴, 雨

TAF: OEKK 100500Z 1006/1020 10012KT 7000 BKN035 BKN100 TEMPO 1006/1020 VRB22KT 4000 BLDU TSRA FEW035CB

超过4000个机场的气象观测和天气预报(METAR&TAF报告)。

可查询的气象台以黄色和红色小点在地图上表示。

将鼠标移到小点上方,可查看气象台名称。

然后点击查看天气观测和预报。

如需切换地图:点击带黑十字的绿色按钮放大地图;点击带横线的绿色按钮缩小地图;或者点击绿色箭头查看邻近地区的地图。


METAR-TAF: